sensor_id;sensor_type;location;lat;lon;timestamp;P1;durP1;ratioP1;P2;durP2;ratioP2
70729;SDS011;58315;53.336;55.932;2022-08-11T00:00:11;54.78;;;21.92;;
70729;SDS011;58315;53.336;55.932;2022-08-11T00:02:40;52.28;;;22.90;;
70729;SDS011;58315;53.336;55.932;2022-08-11T00:05:12;57.20;;;22.05;;
70729;SDS011;58315;53.336;55.932;2022-08-11T00:07:48;56.53;;;22.50;;
70729;SDS011;58315;53.336;55.932;2022-08-11T00:10:20;61.45;;;21.13;;
70729;SDS011;58315;53.336;55.932;2022-08-11T00:12:56;57.88;;;22.25;;
70729;SDS011;58315;53.336;55.932;2022-08-11T00:15:25;56.13;;;22.30;;
70729;SDS011;58315;53.336;55.932;2022-08-11T00:17:57;57.15;;;22.63;;
70729;SDS011;58315;53.336;55.932;2022-08-11T00:20:32;49.97;;;23.45;;
70729;SDS011;58315;53.336;55.932;2022-08-11T00:23:01;54.10;;;22.92;;
70729;SDS011;58315;53.336;55.932;2022-08-11T00:25:39;58.22;;;23.88;;
70729;SDS011;58315;53.336;55.932;2022-08-11T00:30:57;52.60;;;22.02;;
70729;SDS011;58315;53.336;55.932;2022-08-11T00:36:03;53.72;;;22.95;;
70729;SDS011;58315;53.336;55.932;2022-08-11T00:38:31;52.92;;;24.50;;
70729;SDS011;58315;53.336;55.932;2022-08-11T00:41:04;56.20;;;23.05;;
70729;SDS011;58315;53.336;55.932;2022-08-11T00:52:25;55.65;;;21.20;;
70729;SDS011;58315;53.336;55.932;2022-08-11T00:55:34;45.28;;;19.95;;
70729;SDS011;58315;53.336;55.932;2022-08-11T01:01:09;47.40;;;19.50;;
70729;SDS011;58315;53.336;55.932;2022-08-11T01:21:19;45.15;;;17.80;;
70729;SDS011;58315;53.336;55.932;2022-08-11T01:47:46;38.58;;;17.75;;
70729;SDS011;58315;53.336;55.932;2022-08-11T01:53:08;51.15;;;19.75;;
70729;SDS011;58315;53.336;55.932;2022-08-11T01:55:46;42.55;;;17.77;;
70729;SDS011;58315;53.336;55.932;2022-08-11T01:58:30;49.90;;;20.00;;
70729;SDS011;58315;53.336;55.932;2022-08-11T02:01:05;45.00;;;17.85;;
70729;SDS011;58315;53.336;55.932;2022-08-11T02:06:32;46.72;;;18.30;;
70729;SDS011;58315;53.336;55.932;2022-08-11T02:12:35;52.53;;;18.92;;
70729;SDS011;58315;53.336;55.932;2022-08-11T02:15:10;38.65;;;17.80;;
70729;SDS011;58315;53.336;55.932;2022-08-11T02:20:42;42.92;;;19.13;;
70729;SDS011;58315;53.336;55.932;2022-08-11T02:23:44;45.00;;;18.95;;
70729;SDS011;58315;53.336;55.932;2022-08-11T02:26:21;53.25;;;19.42;;
70729;SDS011;58315;53.336;55.932;2022-08-11T02:37:17;54.70;;;21.02;;
70729;SDS011;58315;53.336;55.932;2022-08-11T02:42:48;66.10;;;21.15;;
70729;SDS011;58315;53.336;55.932;2022-08-11T02:54:16;53.92;;;21.25;;
70729;SDS011;58315;53.336;55.932;2022-08-11T02:59:44;42.33;;;18.75;;
70729;SDS011;58315;53.336;55.932;2022-08-11T03:10:27;34.88;;;17.15;;
70729;SDS011;58315;53.336;55.932;2022-08-11T03:22:08;44.60;;;18.17;;
70729;SDS011;58315;53.336;55.932;2022-08-11T03:24:53;56.47;;;17.95;;
70729;SDS011;58315;53.336;55.932;2022-08-11T03:30:04;43.63;;;17.52;;
70729;SDS011;58315;53.336;55.932;2022-08-11T04:23:55;36.92;;;14.80;;
70729;SDS011;58315;53.336;55.932;2022-08-11T04:49:37;29.00;;;15.40;;
70729;SDS011;58315;53.336;55.932;2022-08-11T05:13:46;52.30;;;23.27;;
70729;SDS011;58315;53.336;55.932;2022-08-11T05:16:40;43.47;;;22.92;;
70729;SDS011;58315;53.336;55.932;2022-08-11T05:19:31;47.42;;;22.55;;
70729;SDS011;58315;53.336;55.932;2022-08-11T05:22:16;42.80;;;19.20;;
70729;SDS011;58315;53.336;55.932;2022-08-11T05:25:06;46.08;;;20.20;;
70729;SDS011;58315;53.336;55.932;2022-08-11T05:28:00;54.25;;;22.15;;
70729;SDS011;58315;53.336;55.932;2022-08-11T05:30:49;50.35;;;22.95;;
70729;SDS011;58315;53.336;55.932;2022-08-11T05:33:47;46.60;;;23.17;;
70729;SDS011;58315;53.336;55.932;2022-08-11T05:36:44;60.05;;;24.33;;
70729;SDS011;58315;53.336;55.932;2022-08-11T05:39:14;53.28;;;26.73;;
70729;SDS011;58315;53.336;55.932;2022-08-11T05:42:04;52.33;;;30.48;;
70729;SDS011;58315;53.336;55.932;2022-08-11T05:44:50;53.17;;;30.03;;
70729;SDS011;58315;53.336;55.932;2022-08-11T05:50:24;55.85;;;30.98;;
70729;SDS011;58315;53.336;55.932;2022-08-11T05:53:11;67.63;;;34.25;;
70729;SDS011;58315;53.336;55.932;2022-08-11T05:55:58;66.07;;;36.05;;
70729;SDS011;58315;53.336;55.932;2022-08-11T05:58:46;74.80;;;36.35;;
70729;SDS011;58315;53.336;55.932;2022-08-11T06:01:23;87.03;;;39.78;;
70729;SDS011;58315;53.336;55.932;2022-08-11T06:03:53;64.65;;;36.47;;
70729;SDS011;58315;53.336;55.932;2022-08-11T06:24:26;80.55;;;40.08;;
70729;SDS011;58315;53.336;55.932;2022-08-11T06:26:53;87.88;;;42.65;;
70729;SDS011;58315;53.336;55.932;2022-08-11T06:29:21;81.10;;;38.67;;
70729;SDS011;58315;53.336;55.932;2022-08-11T06:31:50;83.72;;;39.72;;
70729;SDS011;58315;53.336;55.932;2022-08-11T06:37:28;84.38;;;39.28;;
70729;SDS011;58315;53.336;55.932;2022-08-11T06:40:04;87.38;;;37.25;;
70729;SDS011;58315;53.336;55.932;2022-08-11T06:42:42;76.65;;;38.85;;
70729;SDS011;58315;53.336;55.932;2022-08-11T06:47:50;83.22;;;38.85;;
70729;SDS011;58315;53.336;55.932;2022-08-11T06:50:18;102.38;;;39.47;;
70729;SDS011;58315;53.336;55.932;2022-08-11T06:53:05;82.65;;;41.00;;
70729;SDS011;58315;53.336;55.932;2022-08-11T06:55:34;91.55;;;39.53;;
70729;SDS011;58315;53.336;55.932;2022-08-11T06:58:24;72.63;;;37.07;;
70729;SDS011;58315;53.336;55.932;2022-08-11T07:01:12;77.70;;;36.90;;
70729;SDS011;58315;53.336;55.932;2022-08-11T07:03:49;81.93;;;35.05;;
70729;SDS011;58315;53.336;55.932;2022-08-11T07:09:18;62.63;;;34.08;;
70729;SDS011;58315;53.336;55.932;2022-08-11T07:12:08;73.85;;;33.47;;
70729;SDS011;58315;53.336;55.932;2022-08-11T07:15:09;76.15;;;35.65;;
70729;SDS011;58315;53.336;55.932;2022-08-11T07:17:54;85.82;;;34.90;;
70729;SDS011;58315;53.336;55.932;2022-08-11T07:20:44;76.78;;;33.15;;
70729;SDS011;58315;53.336;55.932;2022-08-11T07:23:30;72.80;;;33.53;;
70729;SDS011;58315;53.336;55.932;2022-08-11T07:26:20;66.05;;;30.73;;
70729;SDS011;58315;53.336;55.932;2022-08-11T07:29:09;61.22;;;28.55;;
70729;SDS011;58315;53.336;55.932;2022-08-11T07:31:45;56.08;;;29.75;;
70729;SDS011;58315;53.336;55.932;2022-08-11T07:34:19;52.17;;;25.20;;
70729;SDS011;58315;53.336;55.932;2022-08-11T07:36:50;46.70;;;23.90;;
70729;SDS011;58315;53.336;55.932;2022-08-11T07:39:22;54.15;;;24.75;;
70729;SDS011;58315;53.336;55.932;2022-08-11T07:41:52;44.40;;;19.98;;
70729;SDS011;58315;53.336;55.932;2022-08-11T07:44:19;47.17;;;23.65;;
70729;SDS011;58315;53.336;55.932;2022-08-11T07:46:50;47.35;;;24.35;;
70729;SDS011;58315;53.336;55.932;2022-08-11T07:49:37;46.05;;;22.50;;
70729;SDS011;58315;53.336;55.932;2022-08-11T07:52:24;45.25;;;21.98;;
70729;SDS011;58315;53.336;55.932;2022-08-11T07:54:54;36.15;;;20.73;;
70729;SDS011;58315;53.336;55.932;2022-08-11T07:57:22;38.73;;;20.23;;
70729;SDS011;58315;53.336;55.932;2022-08-11T08:00:08;35.03;;;19.73;;
70729;SDS011;58315;53.336;55.932;2022-08-11T08:02:53;32.13;;;18.48;;
70729;SDS011;58315;53.336;55.932;2022-08-11T08:05:38;41.20;;;21.25;;
70729;SDS011;58315;53.336;55.932;2022-08-11T08:08:23;45.47;;;23.05;;
70729;SDS011;58315;53.336;55.932;2022-08-11T08:11:09;54.63;;;24.60;;
70729;SDS011;58315;53.336;55.932;2022-08-11T08:13:54;51.15;;;25.52;;
70729;SDS011;58315;53.336;55.932;2022-08-11T08:16:40;64.22;;;28.80;;
70729;SDS011;58315;53.336;55.932;2022-08-11T08:19:25;59.60;;;29.02;;
70729;SDS011;58315;53.336;55.932;2022-08-11T08:21:52;71.15;;;32.65;;
70729;SDS011;58315;53.336;55.932;2022-08-11T08:24:19;61.40;;;29.77;;
70729;SDS011;58315;53.336;55.932;2022-08-11T08:26:46;66.18;;;28.92;;
70729;SDS011;58315;53.336;55.932;2022-08-11T08:29:30;61.40;;;26.55;;
70729;SDS011;58315;53.336;55.932;2022-08-11T08:32:18;55.63;;;27.20;;
70729;SDS011;58315;53.336;55.932;2022-08-11T08:34:48;62.63;;;27.08;;
70729;SDS011;58315;53.336;55.932;2022-08-11T08:37:18;62.80;;;27.65;;
70729;SDS011;58315;53.336;55.932;2022-08-11T08:39:46;113.43;;;26.63;;
70729;SDS011;58315;53.336;55.932;2022-08-11T08:42:16;53.20;;;25.85;;
70729;SDS011;58315;53.336;55.932;2022-08-11T08:44:46;63.67;;;26.23;;
70729;SDS011;58315;53.336;55.932;2022-08-11T08:47:17;52.10;;;23.38;;
70729;SDS011;58315;53.336;55.932;2022-08-11T08:49:49;41.75;;;22.98;;
70729;SDS011;58315;53.336;55.932;2022-08-11T08:52:22;44.22;;;21.00;;
70729;SDS011;58315;53.336;55.932;2022-08-11T08:54:52;37.78;;;20.77;;
70729;SDS011;58315;53.336;55.932;2022-08-11T08:57:22;40.30;;;21.33;;
70729;SDS011;58315;53.336;55.932;2022-08-11T08:59:51;39.67;;;21.40;;
70729;SDS011;58315;53.336;55.932;2022-08-11T09:02:19;42.08;;;22.63;;
70729;SDS011;58315;53.336;55.932;2022-08-11T09:04:50;50.63;;;21.95;;
70729;SDS011;58315;53.336;55.932;2022-08-11T09:07:17;55.10;;;16.27;;
70729;SDS011;58315;53.336;55.932;2022-08-11T09:09:47;181.45;;;22.52;;
70729;SDS011;58315;53.336;55.932;2022-08-11T09:12:17;78.57;;;23.80;;
70729;SDS011;58315;53.336;55.932;2022-08-11T09:14:45;74.03;;;22.02;;
70729;SDS011;58315;53.336;55.932;2022-08-11T09:17:35;65.05;;;21.98;;
70729;SDS011;58315;53.336;55.932;2022-08-11T09:20:11;50.42;;;18.27;;
70729;SDS011;58315;53.336;55.932;2022-08-11T09:22:39;40.58;;;16.02;;
70729;SDS011;58315;53.336;55.932;2022-08-11T09:25:26;19.90;;;12.18;;
70729;SDS011;58315;53.336;55.932;2022-08-11T09:28:14;27.63;;;15.85;;
70729;SDS011;58315;53.336;55.932;2022-08-11T09:30:42;24.05;;;15.73;;
70729;SDS011;58315;53.336;55.932;2022-08-11T09:33:10;31.13;;;14.73;;
70729;SDS011;58315;53.336;55.932;2022-08-11T09:35:40;22.50;;;14.23;;
70729;SDS011;58315;53.336;55.932;2022-08-11T09:38:12;30.02;;;15.90;;
70729;SDS011;58315;53.336;55.932;2022-08-11T09:40:58;32.92;;;18.92;;
70729;SDS011;58315;53.336;55.932;2022-08-11T09:43:30;34.70;;;19.77;;
70729;SDS011;58315;53.336;55.932;2022-08-11T09:46:18;38.17;;;20.13;;
70729;SDS011;58315;53.336;55.932;2022-08-11T09:48:49;31.85;;;19.05;;
70729;SDS011;58315;53.336;55.932;2022-08-11T09:51:18;37.95;;;22.73;;
70729;SDS011;58315;53.336;55.932;2022-08-11T09:53:46;37.78;;;20.75;;
70729;SDS011;58315;53.336;55.932;2022-08-11T09:56:15;34.97;;;21.08;;
70729;SDS011;58315;53.336;55.932;2022-08-11T09:59:02;37.35;;;20.33;;
70729;SDS011;58315;53.336;55.932;2022-08-11T10:01:39;38.83;;;20.55;;
70729;SDS011;58315;53.336;55.932;2022-08-11T10:04:12;34.60;;;19.20;;
70729;SDS011;58315;53.336;55.932;2022-08-11T10:06:41;39.55;;;19.02;;
70729;SDS011;58315;53.336;55.932;2022-08-11T10:09:43;40.75;;;22.60;;
70729;SDS011;58315;53.336;55.932;2022-08-11T10:14:53;39.72;;;20.70;;
70729;SDS011;58315;53.336;55.932;2022-08-11T10:17:41;33.92;;;19.33;;
70729;SDS011;58315;53.336;55.932;2022-08-11T10:20:29;30.45;;;17.85;;
70729;SDS011;58315;53.336;55.932;2022-08-11T10:22:58;32.28;;;17.17;;
70729;SDS011;58315;53.336;55.932;2022-08-11T10:25:44;30.48;;;17.50;;
70729;SDS011;58315;53.336;55.932;2022-08-11T10:28:29;29.45;;;16.35;;
70729;SDS011;58315;53.336;55.932;2022-08-11T10:30:57;26.33;;;14.13;;
70729;SDS011;58315;53.336;55.932;2022-08-11T10:33:43;24.00;;;15.93;;
70729;SDS011;58315;53.336;55.932;2022-08-11T10:36:26;26.58;;;15.35;;
70729;SDS011;58315;53.336;55.932;2022-08-11T10:38:57;37.83;;;14.98;;
70729;SDS011;58315;53.336;55.932;2022-08-11T10:41:25;28.90;;;15.32;;
70729;SDS011;58315;53.336;55.932;2022-08-11T10:44:11;23.23;;;15.00;;
70729;SDS011;58315;53.336;55.932;2022-08-11T10:46:37;23.55;;;14.30;;
70729;SDS011;58315;53.336;55.932;2022-08-11T10:49:23;23.48;;;14.02;;
70729;SDS011;58315;53.336;55.932;2022-08-11T10:51:52;24.45;;;14.40;;
70729;SDS011;58315;53.336;55.932;2022-08-11T10:54:40;26.67;;;14.63;;
70729;SDS011;58315;53.336;55.932;2022-08-11T10:57:26;23.10;;;13.25;;
70729;SDS011;58315;53.336;55.932;2022-08-11T11:00:13;24.73;;;13.27;;
70729;SDS011;58315;53.336;55.932;2022-08-11T11:02:41;22.92;;;13.48;;
70729;SDS011;58315;53.336;55.932;2022-08-11T11:05:12;22.60;;;14.10;;
70729;SDS011;58315;53.336;55.932;2022-08-11T11:07:56;24.60;;;13.13;;
70729;SDS011;58315;53.336;55.932;2022-08-11T11:10:50;28.15;;;15.80;;
70729;SDS011;58315;53.336;55.932;2022-08-11T11:13:17;29.95;;;14.75;;
70729;SDS011;58315;53.336;55.932;2022-08-11T11:16:04;30.58;;;15.38;;
70729;SDS011;58315;53.336;55.932;2022-08-11T11:18:49;31.00;;;15.63;;
70729;SDS011;58315;53.336;55.932;2022-08-11T11:21:17;28.70;;;17.33;;
70729;SDS011;58315;53.336;55.932;2022-08-11T11:23:49;32.50;;;17.17;;
70729;SDS011;58315;53.336;55.932;2022-08-11T11:26:39;35.88;;;17.90;;
70729;SDS011;58315;53.336;55.932;2022-08-11T11:37:18;29.58;;;12.00;;
70729;SDS011;58315;53.336;55.932;2022-08-11T11:39:45;29.15;;;11.68;;
70729;SDS011;58315;53.336;55.932;2022-08-11T11:42:15;28.33;;;11.63;;
70729;SDS011;58315;53.336;55.932;2022-08-11T11:44:43;33.42;;;12.10;;
70729;SDS011;58315;53.336;55.932;2022-08-11T11:47:10;31.60;;;13.05;;
70729;SDS011;58315;53.336;55.932;2022-08-11T11:49:37;26.60;;;12.38;;
70729;SDS011;58315;53.336;55.932;2022-08-11T11:52:15;28.45;;;13.77;;
70729;SDS011;58315;53.336;55.932;2022-08-11T11:54:47;34.47;;;13.13;;
70729;SDS011;58315;53.336;55.932;2022-08-11T11:57:17;30.35;;;14.10;;
70729;SDS011;58315;53.336;55.932;2022-08-11T12:00:11;27.85;;;13.70;;
70729;SDS011;58315;53.336;55.932;2022-08-11T12:02:57;32.88;;;14.75;;
70729;SDS011;58315;53.336;55.932;2022-08-11T12:05:25;38.55;;;14.57;;
70729;SDS011;58315;53.336;55.932;2022-08-11T12:07:53;29.90;;;14.52;;
70729;SDS011;58315;53.336;55.932;2022-08-11T12:13:12;29.42;;;15.07;;
70729;SDS011;58315;53.336;55.932;2022-08-11T12:15:57;34.53;;;16.35;;
70729;SDS011;58315;53.336;55.932;2022-08-11T12:18:34;37.78;;;18.38;;
70729;SDS011;58315;53.336;55.932;2022-08-11T12:21:01;35.75;;;19.02;;
70729;SDS011;58315;53.336;55.932;2022-08-11T12:23:28;35.75;;;18.80;;
70729;SDS011;58315;53.336;55.932;2022-08-11T12:26:15;32.90;;;17.65;;
70729;SDS011;58315;53.336;55.932;2022-08-11T12:29:02;36.75;;;17.08;;
70729;SDS011;58315;53.336;55.932;2022-08-11T12:31:30;34.57;;;15.63;;
70729;SDS011;58315;53.336;55.932;2022-08-11T12:34:04;35.38;;;18.13;;
70729;SDS011;58315;53.336;55.932;2022-08-11T12:36:56;34.47;;;17.83;;
70729;SDS011;58315;53.336;55.932;2022-08-11T12:39:23;29.95;;;16.40;;
70729;SDS011;58315;53.336;55.932;2022-08-11T12:42:12;35.80;;;17.83;;
70729;SDS011;58315;53.336;55.932;2022-08-11T12:45:00;38.45;;;18.45;;
70729;SDS011;58315;53.336;55.932;2022-08-11T12:47:49;45.65;;;19.65;;
70729;SDS011;58315;53.336;55.932;2022-08-11T12:50:35;39.83;;;19.15;;
70729;SDS011;58315;53.336;55.932;2022-08-11T12:53:26;42.47;;;22.38;;
70729;SDS011;58315;53.336;55.932;2022-08-11T12:55:54;45.30;;;22.13;;
70729;SDS011;58315;53.336;55.932;2022-08-11T12:58:42;44.65;;;20.98;;
70729;SDS011;58315;53.336;55.932;2022-08-11T13:01:11;45.27;;;20.30;;
70729;SDS011;58315;53.336;55.932;2022-08-11T13:04:00;38.50;;;20.73;;
70729;SDS011;58315;53.336;55.932;2022-08-11T13:06:51;37.58;;;18.42;;
70729;SDS011;58315;53.336;55.932;2022-08-11T13:09:17;51.28;;;17.42;;
70729;SDS011;58315;53.336;55.932;2022-08-11T13:11:44;30.25;;;15.80;;
70729;SDS011;58315;53.336;55.932;2022-08-11T13:14:30;36.83;;;15.88;;
70729;SDS011;58315;53.336;55.932;2022-08-11T13:16:58;29.83;;;15.23;;
70729;SDS011;58315;53.336;55.932;2022-08-11T13:19:43;29.10;;;14.13;;
70729;SDS011;58315;53.336;55.932;2022-08-11T13:22:10;29.13;;;15.35;;
70729;SDS011;58315;53.336;55.932;2022-08-11T13:24:37;34.53;;;18.80;;
70729;SDS011;58315;53.336;55.932;2022-08-11T13:27:05;30.00;;;15.93;;
70729;SDS011;58315;53.336;55.932;2022-08-11T13:29:31;42.35;;;15.93;;
70729;SDS011;58315;53.336;55.932;2022-08-11T13:32:00;38.13;;;17.43;;
70729;SDS011;58315;53.336;55.932;2022-08-11T13:34:27;28.50;;;16.45;;
70729;SDS011;58315;53.336;55.932;2022-08-11T13:37:00;37.50;;;17.00;;
70729;SDS011;58315;53.336;55.932;2022-08-11T13:39:29;35.15;;;16.45;;
70729;SDS011;58315;53.336;55.932;2022-08-11T13:41:57;38.28;;;19.83;;
70729;SDS011;58315;53.336;55.932;2022-08-11T13:44:25;35.53;;;18.63;;
70729;SDS011;58315;53.336;55.932;2022-08-11T13:46:55;37.08;;;18.15;;
70729;SDS011;58315;53.336;55.932;2022-08-11T13:49:23;40.70;;;18.58;;
70729;SDS011;58315;53.336;55.932;2022-08-11T13:51:49;43.15;;;23.88;;
70729;SDS011;58315;53.336;55.932;2022-08-11T13:54:18;46.53;;;22.63;;
70729;SDS011;58315;53.336;55.932;2022-08-11T13:56:47;39.65;;;21.95;;
70729;SDS011;58315;53.336;55.932;2022-08-11T13:59:17;38.67;;;19.70;;
70729;SDS011;58315;53.336;55.932;2022-08-11T14:01:48;38.83;;;20.50;;
70729;SDS011;58315;53.336;55.932;2022-08-11T14:07:09;54.03;;;22.55;;
70729;SDS011;58315;53.336;55.932;2022-08-11T14:09:40;46.65;;;21.40;;
70729;SDS011;58315;53.336;55.932;2022-08-11T14:12:13;51.67;;;22.30;;
70729;SDS011;58315;53.336;55.932;2022-08-11T14:15:07;45.28;;;23.27;;
70729;SDS011;58315;53.336;55.932;2022-08-11T14:17:39;50.88;;;24.17;;
70729;SDS011;58315;53.336;55.932;2022-08-11T14:20:09;46.85;;;24.17;;
70729;SDS011;58315;53.336;55.932;2022-08-11T14:22:38;46.85;;;24.10;;
70729;SDS011;58315;53.336;55.932;2022-08-11T14:25:08;43.85;;;23.83;;
70729;SDS011;58315;53.336;55.932;2022-08-11T14:27:36;36.97;;;20.30;;
70729;SDS011;58315;53.336;55.932;2022-08-11T14:30:09;45.67;;;22.92;;
70729;SDS011;58315;53.336;55.932;2022-08-11T14:32:56;51.75;;;21.05;;
70729;SDS011;58315;53.336;55.932;2022-08-11T14:37:52;32.40;;;17.58;;
70729;SDS011;58315;53.336;55.932;2022-08-11T14:40:22;39.47;;;17.83;;
70729;SDS011;58315;53.336;55.932;2022-08-11T14:43:06;44.70;;;17.83;;
70729;SDS011;58315;53.336;55.932;2022-08-11T14:45:51;40.80;;;17.98;;
70729;SDS011;58315;53.336;55.932;2022-08-11T14:48:36;32.22;;;17.70;;
70729;SDS011;58315;53.336;55.932;2022-08-11T14:51:03;33.88;;;16.92;;
70729;SDS011;58315;53.336;55.932;2022-08-11T14:53:29;40.50;;;17.73;;
70729;SDS011;58315;53.336;55.932;2022-08-11T14:55:57;32.47;;;16.52;;
70729;SDS011;58315;53.336;55.932;2022-08-11T14:58:43;41.53;;;16.63;;
70729;SDS011;58315;53.336;55.932;2022-08-11T15:01:09;32.53;;;15.15;;
70729;SDS011;58315;53.336;55.932;2022-08-11T15:03:54;36.13;;;16.58;;
70729;SDS011;58315;53.336;55.932;2022-08-11T15:06:23;35.63;;;16.05;;
70729;SDS011;58315;53.336;55.932;2022-08-11T15:08:53;39.20;;;15.70;;
70729;SDS011;58315;53.336;55.932;2022-08-11T15:11:20;44.97;;;16.52;;
70729;SDS011;58315;53.336;55.932;2022-08-11T15:14:10;38.50;;;17.42;;
70729;SDS011;58315;53.336;55.932;2022-08-11T15:16:41;45.78;;;20.33;;
70729;SDS011;58315;53.336;55.932;2022-08-11T15:19:42;29.63;;;16.80;;
70729;SDS011;58315;53.336;55.932;2022-08-11T15:22:30;38.83;;;16.88;;
70729;SDS011;58315;53.336;55.932;2022-08-11T15:25:15;37.20;;;15.52;;
70729;SDS011;58315;53.336;55.932;2022-08-11T15:27:41;29.02;;;15.57;;
70729;SDS011;58315;53.336;55.932;2022-08-11T15:30:28;38.92;;;16.80;;
70729;SDS011;58315;53.336;55.932;2022-08-11T15:33:13;32.40;;;15.73;;
70729;SDS011;58315;53.336;55.932;2022-08-11T15:36:02;28.85;;;14.75;;
70729;SDS011;58315;53.336;55.932;2022-08-11T15:39:02;29.98;;;15.40;;
70729;SDS011;58315;53.336;55.932;2022-08-11T15:44:46;33.25;;;14.48;;
70729;SDS011;58315;53.336;55.932;2022-08-11T15:47:41;39.58;;;13.77;;
70729;SDS011;58315;53.336;55.932;2022-08-11T15:50:15;21.85;;;12.82;;
70729;SDS011;58315;53.336;55.932;2022-08-11T15:52:48;32.25;;;13.10;;
70729;SDS011;58315;53.336;55.932;2022-08-11T15:55:21;27.75;;;13.57;;
70729;SDS011;58315;53.336;55.932;2022-08-11T15:57:49;27.67;;;12.70;;
70729;SDS011;58315;53.336;55.932;2022-08-11T16:00:39;25.10;;;12.52;;
70729;SDS011;58315;53.336;55.932;2022-08-11T16:03:27;22.75;;;11.45;;
70729;SDS011;58315;53.336;55.932;2022-08-11T16:06:15;20.47;;;11.57;;
70729;SDS011;58315;53.336;55.932;2022-08-11T16:08:42;25.20;;;11.50;;
70729;SDS011;58315;53.336;55.932;2022-08-11T16:11:13;29.83;;;10.90;;
70729;SDS011;58315;53.336;55.932;2022-08-11T16:13:40;26.83;;;10.18;;
70729;SDS011;58315;53.336;55.932;2022-08-11T16:16:07;27.30;;;10.38;;
70729;SDS011;58315;53.336;55.932;2022-08-11T16:21:23;20.90;;;8.07;;
70729;SDS011;58315;53.336;55.932;2022-08-11T16:23:52;15.05;;;8.13;;
70729;SDS011;58315;53.336;55.932;2022-08-11T16:26:22;15.38;;;7.00;;
70729;SDS011;58315;53.336;55.932;2022-08-11T16:28:52;21.05;;;7.75;;
70729;SDS011;58315;53.336;55.932;2022-08-11T16:31:21;19.75;;;7.72;;
70729;SDS011;58315;53.336;55.932;2022-08-11T16:33:49;17.83;;;6.28;;
70729;SDS011;58315;53.336;55.932;2022-08-11T16:36:18;21.35;;;6.07;;
70729;SDS011;58315;53.336;55.932;2022-08-11T16:39:05;31.48;;;6.90;;
70729;SDS011;58315;53.336;55.932;2022-08-11T16:41:32;15.43;;;6.00;;
70729;SDS011;58315;53.336;55.932;2022-08-11T16:44:19;19.58;;;6.22;;
70729;SDS011;58315;53.336;55.932;2022-08-11T16:47:05;27.75;;;7.05;;
70729;SDS011;58315;53.336;55.932;2022-08-11T16:49:36;10.75;;;6.75;;
70729;SDS011;58315;53.336;55.932;2022-08-11T16:52:07;16.15;;;6.65;;
70729;SDS011;58315;53.336;55.932;2022-08-11T16:54:36;12.93;;;6.45;;
70729;SDS011;58315;53.336;55.932;2022-08-11T16:57:10;24.35;;;7.28;;
70729;SDS011;58315;53.336;55.932;2022-08-11T17:00:01;14.52;;;6.38;;
70729;SDS011;58315;53.336;55.932;2022-08-11T17:02:31;16.85;;;6.70;;
70729;SDS011;58315;53.336;55.932;2022-08-11T17:05:21;13.73;;;7.07;;
70729;SDS011;58315;53.336;55.932;2022-08-11T17:08:07;20.50;;;7.28;;
70729;SDS011;58315;53.336;55.932;2022-08-11T17:13:43;23.50;;;7.38;;
70729;SDS011;58315;53.336;55.932;2022-08-11T17:16:15;36.83;;;13.20;;
70729;SDS011;58315;53.336;55.932;2022-08-11T17:18:57;18.98;;;8.63;;
70729;SDS011;58315;53.336;55.932;2022-08-11T17:21:26;20.52;;;7.53;;
70729;SDS011;58315;53.336;55.932;2022-08-11T17:26:41;16.67;;;7.00;;
70729;SDS011;58315;53.336;55.932;2022-08-11T17:32:02;18.42;;;5.95;;
70729;SDS011;58315;53.336;55.932;2022-08-11T17:34:49;15.07;;;5.90;;
70729;SDS011;58315;53.336;55.932;2022-08-11T17:37:44;12.13;;;5.50;;
70729;SDS011;58315;53.336;55.932;2022-08-11T17:40:13;11.63;;;5.18;;
70729;SDS011;58315;53.336;55.932;2022-08-11T17:42:46;16.23;;;5.25;;
70729;SDS011;58315;53.336;55.932;2022-08-11T17:45:31;11.88;;;5.72;;
70729;SDS011;58315;53.336;55.932;2022-08-11T17:48:42;10.68;;;4.63;;
70729;SDS011;58315;53.336;55.932;2022-08-11T17:51:13;26.08;;;4.68;;
70729;SDS011;58315;53.336;55.932;2022-08-11T17:54:03;18.10;;;5.25;;
70729;SDS011;58315;53.336;55.932;2022-08-11T17:56:50;23.25;;;5.38;;
70729;SDS011;58315;53.336;55.932;2022-08-11T17:59:36;8.95;;;4.20;;
70729;SDS011;58315;53.336;55.932;2022-08-11T18:02:20;12.65;;;4.35;;
70729;SDS011;58315;53.336;55.932;2022-08-11T18:05:05;11.20;;;4.10;;
70729;SDS011;58315;53.336;55.932;2022-08-11T18:07:31;9.63;;;3.72;;
70729;SDS011;58315;53.336;55.932;2022-08-11T18:10:18;14.77;;;4.00;;
70729;SDS011;58315;53.336;55.932;2022-08-11T18:13:03;17.77;;;3.97;;
70729;SDS011;58315;53.336;55.932;2022-08-11T18:15:49;10.10;;;4.13;;
70729;SDS011;58315;53.336;55.932;2022-08-11T18:18:37;16.42;;;3.70;;
70729;SDS011;58315;53.336;55.932;2022-08-11T18:21:24;10.70;;;3.90;;
70729;SDS011;58315;53.336;55.932;2022-08-11T18:24:13;16.73;;;4.10;;
70729;SDS011;58315;53.336;55.932;2022-08-11T18:27:01;11.27;;;4.18;;
70729;SDS011;58315;53.336;55.932;2022-08-11T18:29:47;23.05;;;4.20;;
70729;SDS011;58315;53.336;55.932;2022-08-11T18:32:35;12.68;;;4.32;;
70729;SDS011;58315;53.336;55.932;2022-08-11T18:35:22;20.13;;;4.10;;
70729;SDS011;58315;53.336;55.932;2022-08-11T18:38:08;14.60;;;4.50;;
70729;SDS011;58315;53.336;55.932;2022-08-11T18:40:55;14.82;;;4.13;;
70729;SDS011;58315;53.336;55.932;2022-08-11T18:43:42;7.20;;;3.97;;
70729;SDS011;58315;53.336;55.932;2022-08-11T18:46:32;13.50;;;5.00;;
70729;SDS011;58315;53.336;55.932;2022-08-11T18:49:23;14.18;;;3.88;;
70729;SDS011;58315;53.336;55.932;2022-08-11T18:52:10;12.63;;;3.60;;
70729;SDS011;58315;53.336;55.932;2022-08-11T18:54:58;7.07;;;3.17;;
70729;SDS011;58315;53.336;55.932;2022-08-11T18:57:46;12.57;;;3.80;;
70729;SDS011;58315;53.336;55.932;2022-08-11T19:00:31;17.85;;;4.00;;
70729;SDS011;58315;53.336;55.932;2022-08-11T19:03:18;6.50;;;3.35;;
70729;SDS011;58315;53.336;55.932;2022-08-11T19:06:05;6.53;;;3.28;;
70729;SDS011;58315;53.336;55.932;2022-08-11T19:08:53;15.30;;;3.28;;
70729;SDS011;58315;53.336;55.932;2022-08-11T19:11:44;23.23;;;3.10;;
70729;SDS011;58315;53.336;55.932;2022-08-11T19:14:30;7.55;;;2.80;;
70729;SDS011;58315;53.336;55.932;2022-08-11T19:17:16;6.68;;;2.85;;
70729;SDS011;58315;53.336;55.932;2022-08-11T19:20:08;12.90;;;2.85;;
70729;SDS011;58315;53.336;55.932;2022-08-11T19:22:56;25.27;;;3.15;;
70729;SDS011;58315;53.336;55.932;2022-08-11T19:25:43;16.58;;;2.60;;
70729;SDS011;58315;53.336;55.932;2022-08-11T19:28:29;20.90;;;3.30;;
70729;SDS011;58315;53.336;55.932;2022-08-11T19:31:15;9.65;;;3.22;;
70729;SDS011;58315;53.336;55.932;2022-08-11T19:34:00;9.38;;;2.95;;
70729;SDS011;58315;53.336;55.932;2022-08-11T19:36:45;6.93;;;2.72;;
70729;SDS011;58315;53.336;55.932;2022-08-11T19:39:31;18.13;;;3.28;;
70729;SDS011;58315;53.336;55.932;2022-08-11T19:42:17;12.35;;;3.08;;
70729;SDS011;58315;53.336;55.932;2022-08-11T19:45:03;10.05;;;3.15;;